MMGL

Don Miguel Hidalgo Y Costilla International Airport

Airport
ICAO code
MMGL
IATA Code
GDL
Summary
ICAO Region
CARSAM
ICAO Territory
Location

Tlajomulco de Zuñiga, Jalisco

Serving
Guadalajara
Elevation
5016 ft
Coordinates
20° 31' 18" N , 103° 18' 40" W
KCC
Metar
MMGL 151644Z 00000KT 7SM SCT025TCU 27/14 A3014 RMK 8/200 HZY ISOL AC/CI

International airport located 10nm south of Guadalajara, Mexico.

Climatology

Hot, semi-arid/Steppe climate (Köppen climate classification BSh) - hot, sometimes extremely hot summers and mild to warm winters, with low annual precipitation.

Runways

Designator Length Width Surface Rops
2/20 1818 29 ASP Yes/Yes
10/28 4000 60 CON Yes/Yes

Airport map

Aerial View

SKYbrary Partners:

Safety knowledge contributed by: